Terminal Aerodrome Forecast
Issued by NWS

Home | Current Version | Previous Version | Text Only | Print | Product List | Glossary On
Versions: 1 2 3 4 5 6 7 8 9 10 11 12 13 14 15
966
FTUS42 KMLB 221142
TAFLEE
TAF
KLEE 221142Z 2212/2312 00000KT P6SM SCT250
     FM221400 22005KT P6SM VCSH SCT025 SCT070
     FM221600 22006KT P6SM VCTS SCT035CB BKN080
      TEMPO 2217/2220 4SM TSRA BKN030CB BKN070
     FM222000 26006KT P6SM VCSH BKN040 BKN100
     FM230000 20003KT P6SM BKN250=

USA.gov is the U.S. government's official web portal to all federal, state and local government web resources and services.